Time;durP1;ratioP1;P1;durP2;ratioP2;P2;SDS_P1;SDS_P2;PMS_P1;PMS_P2;Temp;Humidity;BMP_temperature;BMP_pressure;BME280_temperature;BME280_humidity;BME280_pressure;Samples;Min_cycle;Max_cycle;Signal;HPM_P1;HPM_P2
2023/02/18 00:00:39;;;;;;;19.20;13.47;;;;;;;9.57;86.94;102045.53;2068905;28;20263;-70
2023/02/18 00:01:40;;;;;;;18.03;12.93;;;;;;;9.54;86.33;102052.66;2071228;28;20774;-70
2023/02/18 00:02:40;;;;;;;17.47;12.90;;;;;;;9.56;85.08;102049.50;2070971;28;20185;-70
2023/02/18 00:03:41;;;;;;;16.03;11.60;;;;;;;9.48;83.27;102050.69;2071440;28;20196;-70
2023/02/18 00:04:41;;;;;;;18.20;13.90;;;;;;;9.53;85.35;102050.31;2072101;28;20178;-70
2023/02/18 00:05:41;;;;;;;15.53;12.47;;;;;;;9.54;85.69;102049.88;2069336;28;20189;-70
2023/02/18 00:06:42;;;;;;;16.17;12.73;;;;;;;9.54;84.14;102047.13;2063814;28;20211;-70
2023/02/18 00:07:43;;;;;;;18.17;12.63;;;;;;;9.53;82.25;102045.53;2071144;28;20682;-70
2023/02/18 00:08:45;;;;;;;17.17;12.87;;;;;;;9.44;80.64;102061.72;2071575;28;20572;-70
2023/02/18 00:09:45;;;;;;;16.83;12.60;;;;;;;9.47;81.23;102054.59;2068444;28;20444;-70
2023/02/18 00:10:46;;;;;;;17.37;11.47;;;;;;;9.54;80.69;102051.88;2067444;28;20510;-70
2023/02/18 00:11:46;;;;;;;13.77;10.93;;;;;;;9.61;79.49;102049.94;2066643;28;20220;-70
2023/02/18 00:12:46;;;;;;;16.93;12.70;;;;;;;9.66;82.61;102057.03;2072199;28;20181;-70
2023/02/18 00:13:51;;;;;;;17.13;13.10;;;;;;;9.61;81.88;102047.16;2071845;28;20186;-70
2023/02/18 00:14:51;;;;;;;17.10;12.20;;;;;;;9.66;80.87;102055.09;2067429;28;20185;-70
2023/02/18 00:15:52;;;;;;;14.90;12.27;;;;;;;9.66;82.70;102059.81;2070545;28;20494;-70
2023/02/18 00:16:52;;;;;;;15.50;12.23;;;;;;;9.71;80.76;102062.19;2063141;28;20197;-70
2023/02/18 00:17:53;;;;;;;16.73;12.00;;;;;;;9.70;79.51;102058.66;2070140;28;20795;-70
2023/02/18 00:18:55;;;;;;;16.37;12.27;;;;;;;9.71;81.93;102054.69;2071789;28;20192;-70
2023/02/18 00:19:56;;;;;;;15.53;12.07;;;;;;;9.17;82.28;101973.91;2071524;28;20793;-70
2023/02/18 00:20:56;;;;;;;15.87;11.77;;;;;;;9.72;81.09;102047.16;2071247;28;20875;-70
2023/02/18 00:21:57;;;;;;;15.40;11.23;;;;;;;9.80;79.58;102052.34;2069218;28;20208;-70
2023/02/18 00:22:57;;;;;;;16.63;12.20;;;;;;;9.82;78.57;102049.97;2068431;28;20182;-70
2023/02/18 00:23:58;;;;;;;15.13;10.77;;;;;;;9.81;78.43;102042.06;2072321;28;20185;-70
2023/02/18 00:24:59;;;;;;;14.83;11.30;;;;;;;9.76;78.38;102046.00;2071831;28;20188;-70
2023/02/18 00:26:06;;;;;;;14.07;10.90;;;;;;;9.83;77.97;102045.22;2069886;28;20636;-70
2023/02/18 00:27:06;;;;;;;14.17;10.77;;;;;;;9.60;78.01;102011.56;2063984;28;20193;-70
2023/02/18 00:28:07;;;;;;;15.17;12.20;;;;;;;9.57;79.84;101998.50;2070177;28;20443;-70
2023/02/18 00:29:07;;;;;;;14.50;11.37;;;;;;;9.85;79.81;102040.84;2067488;28;20182;-70
2023/02/18 00:30:08;;;;;;;13.53;10.37;;;;;;;9.82;78.01;102046.41;2068469;28;20189;-70
2023/02/18 00:31:13;;;;;;;14.50;11.03;;;;;;;9.85;78.89;102046.41;2071498;28;20178;-70
2023/02/18 00:32:13;;;;;;;11.87;10.37;;;;;;;9.89;78.44;102044.44;2071129;28;20185;-70
2023/02/18 00:33:13;;;;;;;15.50;11.23;;;;;;;9.94;78.03;102043.28;2070832;28;20953;-70
2023/02/18 00:34:14;;;;;;;15.90;10.73;;;;;;;9.93;76.89;102044.44;2071573;28;20220;-69
2023/02/18 00:35:14;;;;;;;14.00;10.10;;;;;;;9.96;76.02;102043.66;2070911;28;20185;-69
2023/02/18 00:36:17;;;;;;;12.30;10.17;;;;;;;9.97;75.97;102037.72;2072009;28;20558;-70
2023/02/18 00:37:17;;;;;;;12.13;9.67;;;;;;;9.77;75.66;101997.75;2064795;28;20244;-70
2023/02/18 00:38:18;;;;;;;12.87;10.20;;;;;;;9.73;75.69;101993.41;2070477;28;20506;-70
2023/02/18 00:39:18;;;;;;;13.03;10.03;;;;;;;10.03;75.11;102036.16;2071949;28;20196;-70
2023/02/18 00:40:19;;;;;;;13.60;10.13;;;;;;;10.01;74.95;102035.75;2070675;28;20304;-70
2023/02/18 00:41:21;;;;;;;12.07;9.57;;;;;;;10.13;74.44;102035.41;2070005;28;20559;-70
2023/02/18 00:42:22;;;;;;;13.38;9.93;;;;;;;10.16;73.28;102023.53;2072297;28;20428;-70
2023/02/18 00:43:22;;;;;;;12.90;9.50;;;;;;;10.28;72.76;102039.75;2071364;28;20188;-69
2023/02/18 00:44:22;;;;;;;12.73;9.33;;;;;;;10.24;72.60;102033.41;2071724;28;20191;-69
2023/02/18 00:45:23;;;;;;;13.50;9.33;;;;;;;10.24;72.14;102050.03;2070289;28;20197;-70
2023/02/18 00:46:24;;;;;;;12.73;9.30;;;;;;;10.35;71.72;102028.66;2071722;28;20654;-69
2023/02/18 00:47:25;;;;;;;12.17;9.33;;;;;;;10.34;71.71;102027.06;2069396;28;20197;-70
2023/02/18 00:48:25;;;;;;;11.07;9.07;;;;;;;10.35;71.93;102028.66;2070038;28;20427;-70
2023/02/18 00:49:26;;;;;;;11.67;9.73;;;;;;;10.42;71.40;102025.91;2064366;28;20211;-70
2023/02/18 00:50:26;;;;;;;14.30;9.77;;;;;;;10.49;71.27;102027.84;2071605;28;20211;-70
2023/02/18 00:51:27;;;;;;;10.70;9.30;;;;;;;10.53;70.97;102025.88;2063667;28;20201;-70
2023/02/18 00:52:27;;;;;;;12.40;9.87;;;;;;;10.53;70.51;102023.09;2069388;28;20233;-70
2023/02/18 00:53:28;;;;;;;11.93;9.60;;;;;;;10.55;70.54;102018.75;2071428;28;20638;-70
2023/02/18 00:54:29;;;;;;;12.40;9.40;;;;;;;10.58;69.99;102017.94;2071503;28;20202;-70
2023/02/18 00:55:29;;;;;;;17.50;9.70;;;;;;;10.63;69.27;102017.53;2070679;28;20535;-70
2023/02/18 00:56:30;;;;;;;13.67;9.23;;;;;;;10.68;68.53;102016.34;2071494;28;20194;-70
2023/02/18 00:57:30;;;;;;;12.23;8.50;;;;;;;10.62;67.88;102007.66;2070231;28;20184;-69
2023/02/18 00:58:31;;;;;;;11.53;9.13;;;;;;;10.73;67.73;102016.72;2071610;28;20227;-70
2023/02/18 00:59:32;;;;;;;12.63;9.32;;;;;;;10.73;67.26;102021.47;2071360;28;20677;-70
2023/02/18 01:00:33;;;;;;;11.10;8.60;;;;;;;10.10;66.97;101921.84;2067820;28;20228;-70
2023/02/18 01:01:34;;;;;;;31.57;10.30;;;;;;;10.76;66.83;101999.28;2071338;28;20286;-70
2023/02/18 01:02:34;;;;;;;13.17;9.50;;;;;;;10.67;66.13;101970.41;2067211;28;20193;-70
2023/02/18 01:03:38;;;;;;;12.83;9.23;;;;;;;10.88;65.93;102014.69;2071247;28;20308;-70
2023/02/18 01:04:38;;;;;;;15.60;9.70;;;;;;;10.95;65.28;102009.13;2071671;28;20189;-70
2023/02/18 01:05:39;;;;;;;11.57;9.60;;;;;;;10.99;64.82;102012.69;2070571;28;20436;-70
2023/02/18 01:06:40;;;;;;;13.07;9.47;;;;;;;11.03;65.25;102010.69;2070860;28;20193;-70
2023/02/18 01:07:40;;;;;;;11.70;9.20;;;;;;;11.03;64.84;102024.56;2071590;28;20477;-70
2023/02/18 01:08:41;;;;;;;11.67;9.20;;;;;;;11.06;65.08;102007.13;2069994;28;20196;-70
2023/02/18 01:09:42;;;;;;;11.20;9.17;;;;;;;11.09;64.61;102009.06;2071122;28;20562;-70
2023/02/18 01:10:45;;;;;;;14.67;9.20;;;;;;;11.16;64.68;102014.59;2070751;28;20184;-70
2023/02/18 01:11:45;;;;;;;12.47;8.83;;;;;;;11.03;64.33;101986.53;2070989;28;20181;-70
2023/02/18 01:12:45;;;;;;;12.53;9.27;;;;;;;11.16;64.98;102009.03;2071218;28;20447;-69
2023/02/18 01:13:46;;;;;;;12.17;9.00;;;;;;;11.13;64.27;102004.31;2069871;28;20726;-70
2023/02/18 01:14:46;;;;;;;11.17;8.63;;;;;;;10.86;64.80;101953.31;2070810;28;20202;-70
2023/02/18 01:15:47;;;;;;;12.53;9.23;;;;;;;9.94;64.28;101802.34;2066849;28;20192;-69
2023/02/18 01:16:47;;;;;;;12.57;9.30;;;;;;;10.49;64.18;101909.47;2063880;28;20486;-70
2023/02/18 01:17:48;;;;;;;10.97;8.90;;;;;;;11.14;64.54;101997.56;2071428;28;20675;-70
2023/02/18 01:18:49;;;;;;;12.20;9.03;;;;;;;10.93;64.10;101970.72;2065939;28;20193;-69
2023/02/18 01:19:49;;;;;;;11.13;8.47;;;;;;;11.12;63.87;102000.72;2063041;28;20190;-70
2023/02/18 01:20:49;;;;;;;13.03;8.30;;;;;;;11.14;63.58;101987.28;2068582;28;20208;-69
2023/02/18 01:21:50;;;;;;;11.57;8.70;;;;;;;10.90;63.87;101968.72;2067521;28;20182;-70
2023/02/18 01:22:50;;;;;;;10.57;8.43;;;;;;;11.12;64.00;101984.09;2071053;28;20189;-70
2023/02/18 01:23:51;;;;;;;13.30;8.73;;;;;;;11.15;64.19;101986.06;2063905;28;20186;-70
2023/02/18 01:24:51;;;;;;;11.93;8.60;;;;;;;11.13;63.64;101991.22;2070909;28;20205;-70
2023/02/18 01:25:52;;;;;;;15.17;9.57;;;;;;;11.10;64.34;101992.03;2070126;28;20242;-69
2023/02/18 01:26:52;;;;;;;11.27;8.53;;;;;;;10.90;64.22;101976.25;2065389;28;20202;-70
2023/02/18 01:27:53;;;;;;;10.70;8.53;;;;;;;10.59;64.30;101932.78;2067639;28;20311;-69
2023/02/18 01:28:53;;;;;;;10.73;8.40;;;;;;;10.93;64.70;101983.78;2070820;28;20725;-70
2023/02/18 01:29:54;;;;;;;9.97;8.70;;;;;;;10.88;64.75;101990.53;2070316;28;20676;-70
2023/02/18 01:30:54;;;;;;;11.83;8.80;;;;;;;10.88;64.85;101992.50;2070934;28;20189;-70
2023/02/18 01:31:55;;;;;;;10.60;8.40;;;;;;;10.90;64.95;101995.66;2071341;28;20254;-70
2023/02/18 01:32:56;;;;;;;11.20;8.70;;;;;;;10.91;65.02;101991.72;2071734;28;20196;-70
2023/02/18 01:33:57;;;;;;;12.00;9.00;;;;;;;10.91;64.81;101986.19;2071362;28;20226;-70
2023/02/18 01:35:00;;;;;;;9.73;8.17;;;;;;;10.03;64.28;101847.81;2070643;28;20466;-70
2023/02/18 01:36:01;;;;;;;11.57;8.50;;;;;;;10.76;63.90;101960.47;2070647;28;20224;-70
2023/02/18 01:37:01;;;;;;;11.57;8.80;;;;;;;10.92;64.09;101990.53;2069913;28;20578;-70
2023/02/18 01:38:01;;;;;;;11.57;8.47;;;;;;;10.91;63.51;101981.41;2070595;28;20184;-70
2023/02/18 01:39:03;;;;;;;12.53;8.87;;;;;;;10.91;63.95;101988.94;2071332;28;20184;-70
2023/02/18 01:40:05;;;;;;;10.07;8.73;;;;;;;10.90;63.95;101977.06;2069893;28;20259;-70
2023/02/18 01:41:06;;;;;;;11.60;8.80;;;;;;;10.93;64.00;101975.47;2071702;28;20428;-69
2023/02/18 01:42:18;;;;;;;11.53;8.73;;;;;;;10.95;63.49;101975.84;2071156;28;20468;-70
2023/02/18 01:43:19;;;;;;;12.20;8.10;;;;;;;11.03;63.31;101980.97;2071725;28;20506;-70
2023/02/18 01:44:23;;;;;;;12.10;8.33;;;;;;;10.51;62.87;101898.75;2071053;28;20459;-70
2023/02/18 01:45:33;;;;;;;11.53;8.40;;;;;;;11.04;62.45;101974.22;2070586;28;20927;-70
2023/02/18 01:46:33;;;;;;;10.73;7.93;;;;;;;11.09;62.45;101970.22;2071206;28;20454;-70
2023/02/18 01:47:33;;;;;;;10.40;7.97;;;;;;;11.11;61.70;101965.06;2071066;28;20885;-70
2023/02/18 01:48:45;;;;;;;12.40;8.57;;;;;;;11.13;62.16;101980.13;2070931;28;20204;-70
2023/02/18 01:49:51;;;;;;;10.87;8.07;;;;;;;11.11;62.03;101984.47;2071699;28;20231;-70
2023/02/18 01:51:21;;;;;;;11.97;7.93;;;;;;;11.15;61.50;101969.41;2070652;28;20892;-70
2023/02/18 01:52:25;;;;;;;11.43;9.00;;;;;;;10.82;61.16;101910.94;2066326;28;20555;-69
2023/02/18 01:53:32;;;;;;;9.80;7.63;;;;;;;11.22;60.87;101966.59;2069702;28;20449;-70
2023/02/18 01:54:40;;;;;;;10.57;8.23;;;;;;;11.24;61.09;101967.00;2071238;28;20624;-70
2023/02/18 01:55:41;;;;;;;11.10;8.00;;;;;;;10.64;60.38;101888.03;2070573;28;20447;-70
2023/02/18 01:56:44;;;;;;;9.60;8.17;;;;;;;11.22;60.66;101969.38;2070097;28;20546;-70
2023/02/18 01:57:44;;;;;;;9.93;7.90;;;;;;;10.40;60.52;101833.50;2070753;28;20378;-70
2023/02/18 01:58:45;;;;;;;10.93;8.23;;;;;;;10.28;60.22;101809.78;2071015;28;20438;-69
2023/02/18 01:59:50;;;;;;;13.27;7.73;;;;;;;10.17;60.08;101800.72;2072209;28;20227;-70
2023/02/18 02:00:51;;;;;;;10.07;7.77;;;;;;;11.28;60.24;101967.75;2072424;28;20510;-70
2023/02/18 02:01:52;;;;;;;10.37;7.40;;;;;;;11.30;60.12;101961.81;2072459;28;20440;-70
2023/02/18 02:02:53;;;;;;;10.87;7.80;;;;;;;11.03;59.96;101924.69;2073154;28;20255;-69
2023/02/18 02:03:54;;;;;;;10.50;7.80;;;;;;;11.06;59.99;101921.91;2072791;28;20508;-70
2023/02/18 02:04:54;;;;;;;10.33;7.90;;;;;;;11.29;59.81;101955.47;2073060;28;20232;-70
2023/02/18 02:05:55;;;;;;;12.30;7.47;;;;;;;11.33;60.04;101961.00;2072006;28;20287;-70
2023/02/18 02:06:55;;;;;;;9.53;7.43;;;;;;;11.34;59.30;101963.38;2071213;28;20232;-70
2023/02/18 02:07:56;;;;;;;9.77;7.33;;;;;;;11.29;59.25;101954.69;2072085;28;20181;-70
2023/02/18 02:09:01;;;;;;;8.90;7.37;;;;;;;11.36;59.34;101963.75;2072294;28;20204;-70
2023/02/18 02:10:02;;;;;;;9.80;7.37;;;;;;;11.39;59.49;101965.72;2072689;28;20203;-70
2023/02/18 02:11:08;;;;;;;9.53;7.83;;;;;;;11.38;59.53;101964.13;2072872;28;20454;-70
2023/02/18 02:12:23;;;;;;;10.37;7.90;;;;;;;11.43;58.96;101960.16;2071480;28;20432;-70
2023/02/18 02:13:45;;;;;;;10.03;7.67;;;;;;;11.42;58.82;101964.13;2067688;28;20419;-70
2023/02/18 02:15:25;;;;;;;10.23;7.07;;;;;;;11.42;58.96;101959.34;2066440;28;20500;-70
2023/02/18 02:17:01;;;;;;;9.10;7.20;;;;;;;11.35;58.59;101939.97;2067536;28;20458;-69
2023/02/18 02:18:35;;;;;;;12.13;7.57;;;;;;;11.38;58.78;101955.03;2070154;28;20975;-69
2023/02/18 02:19:54;;;;;;;10.57;7.53;;;;;;;11.40;59.13;101958.97;2068100;28;20857;-70
2023/02/18 02:21:36;;;;;;;11.43;7.30;;;;;;;11.40;58.71;101961.75;2072845;28;20464;-70
2023/02/18 02:22:48;;;;;;;10.17;7.20;;;;;;;11.37;58.83;101964.56;2071977;28;20841;-70
2023/02/18 02:24:25;;;;;;;12.50;7.77;;;;;;;11.35;59.44;101967.72;2077129;28;20456;-70
2023/02/18 02:26:02;;;;;;;9.53;7.10;;;;;;;11.37;58.80;101973.66;2074502;28;20533;-70
2023/02/18 02:27:07;;;;;;;10.70;7.53;;;;;;;11.33;59.08;101970.09;2078902;28;20786;-70
2023/02/18 02:28:25;;;;;;;9.57;7.00;;;;;;;11.26;59.02;101974.91;2071916;28;20456;-69
2023/02/18 02:30:11;;;;;;;10.93;8.13;;;;;;;11.24;58.79;101967.00;2070594;28;20435;-70
2023/02/18 02:31:54;;;;;;;10.67;7.10;;;;;;;11.26;58.67;101970.16;2067602;28;20444;-70
2023/02/18 02:33:01;;;;;;;9.53;7.13;;;;;;;11.32;58.40;101974.06;2067857;28;20887;-69
2023/02/18 02:34:13;;;;;;;9.20;7.13;;;;;;;11.25;58.56;101973.31;2072147;28;20474;-70
2023/02/18 02:35:26;;;;;;;9.07;7.17;;;;;;;10.85;58.82;101910.91;2064150;28;20524;-70
2023/02/18 02:36:42;;;;;;;11.17;6.90;;;;;;;10.73;58.10;101882.84;2072400;28;20586;-70
2023/02/18 02:37:53;;;;;;;10.07;6.77;;;;;;;11.26;58.35;101966.56;2065438;28;20413;-70
2023/02/18 02:39:10;;;;;;;8.57;6.40;;;;;;;10.96;58.07;101922.75;2072813;28;20446;-70
2023/02/18 02:40:45;;;;;;;8.40;6.33;;;;;;;11.25;58.59;101965.81;2072317;28;20467;-70
2023/02/18 02:42:08;;;;;;;12.23;6.83;;;;;;;11.14;58.59;101956.75;2071942;28;20875;-70
2023/02/18 02:43:15;;;;;;;9.90;6.57;;;;;;;11.12;58.95;101955.56;2070728;28;20464;-70
2023/02/18 02:44:30;;;;;;;8.50;6.43;;;;;;;10.61;59.70;101878.53;2079522;28;20980;-70
2023/02/18 02:45:59;;;;;;;9.37;6.50;;;;;;;11.24;58.20;101950.34;2069503;28;20423;-70
2023/02/18 02:47:09;;;;;;;8.33;6.57;;;;;;;11.20;58.24;101946.00;2066634;28;20519;-70
2023/02/18 02:48:43;;;;;;;9.53;6.93;;;;;;;11.18;58.55;101946.41;2072501;28;20814;-70
2023/02/18 02:49:53;;;;;;;9.40;6.37;;;;;;;11.09;58.68;101937.75;2072400;28;20486;-70
2023/02/18 02:51:05;;;;;;;8.73;6.60;;;;;;;11.22;58.65;101946.41;2072824;28;20447;-70
2023/02/18 02:52:27;;;;;;;9.53;6.60;;;;;;;11.21;58.49;101951.16;2071878;28;20453;-70
2023/02/18 02:53:32;;;;;;;8.30;6.90;;;;;;;11.28;58.84;101951.09;2071922;28;20955;-70
2023/02/18 02:54:33;;;;;;;8.63;6.23;;;;;;;11.32;58.10;101953.88;2066308;28;20937;-70
2023/02/18 02:55:33;;;;;;;8.70;6.83;;;;;;;11.29;58.48;101951.91;2068720;28;20497;-70
2023/02/18 02:56:33;;;;;;;8.43;6.40;;;;;;;11.13;58.13;101927.41;2067298;28;20339;-70
2023/02/18 02:57:48;;;;;;;8.97;6.17;;;;;;;11.37;57.73;101957.00;2067005;28;20236;-69
2023/02/18 02:58:59;;;;;;;9.47;6.60;;;;;;;11.30;57.96;101965.38;2068599;28;20224;-69
2023/02/18 03:00:11;;;;;;;9.03;6.27;;;;;;;11.33;58.62;101967.31;2072189;28;20464;-70
2023/02/18 03:01:36;;;;;;;11.17;6.53;;;;;;;11.41;58.87;101976.41;2068103;28;20444;-70
2023/02/18 03:03:12;;;;;;;9.87;6.80;;;;;;;11.44;57.91;101962.53;2072289;28;20460;-70
2023/02/18 03:04:21;;;;;;;8.37;6.50;;;;;;;11.38;57.46;101960.56;2070508;28;20490;-70
2023/02/18 03:05:30;;;;;;;8.40;6.43;;;;;;;11.43;57.04;101977.59;2069591;28;20482;-70
2023/02/18 03:06:34;;;;;;;11.60;6.80;;;;;;;11.43;57.64;101972.03;2066073;28;20977;-70
2023/02/18 03:08:06;;;;;;;8.80;6.10;;;;;;;11.47;57.64;101970.03;2071117;28;20901;-70
2023/02/18 03:09:22;;;;;;;7.90;6.10;;;;;;;11.49;57.53;101972.41;2055037;28;20449;-70
2023/02/18 03:10:47;;;;;;;8.40;6.03;;;;;;;11.33;57.46;101941.56;2070573;28;21082;-70
2023/02/18 03:12:05;;;;;;;8.70;6.23;;;;;;;11.58;57.43;101967.19;2071798;28;20459;-70
2023/02/18 03:13:17;;;;;;;7.87;6.20;;;;;;;11.61;57.24;101969.16;2072734;28;20820;-70
2023/02/18 03:14:27;;;;;;;8.10;5.70;;;;;;;11.70;56.96;101952.84;2070501;28;20436;-70
2023/02/18 03:15:31;;;;;;;10.00;6.30;;;;;;;11.70;57.09;101953.66;2063897;28;20451;-70
2023/02/18 03:17:09;;;;;;;9.80;6.50;;;;;;;11.73;56.68;101949.28;2071444;28;20515;-69
2023/02/18 03:18:34;;;;;;;7.17;5.40;;;;;;;11.74;56.06;101951.63;2067113;28;20487;-69
2023/02/18 03:19:51;;;;;;;8.70;5.83;;;;;;;10.93;56.18;101826.50;2068809;28;20452;-70
2023/02/18 03:21:16;;;;;;;8.07;5.73;;;;;;;11.64;56.52;101940.59;2071833;28;20448;-69
2023/02/18 03:22:25;;;;;;;9.27;6.37;;;;;;;11.45;56.34;101930.78;2071791;28;20444;-70
2023/02/18 03:23:32;;;;;;;8.47;5.77;;;;;;;11.08;56.93;101849.38;2072262;28;20586;-70
2023/02/18 03:24:55;;;;;;;7.87;5.70;;;;;;;11.67;56.93;101937.78;2072047;28;20459;-70
2023/02/18 03:25:58;;;;;;;7.97;5.60;;;;;;;11.67;56.62;101932.25;2064566;28;20422;-70
2023/02/18 03:27:12;;;;;;;8.43;6.17;;;;;;;11.46;56.64;101910.16;2070229;28;20943;-70
2023/02/18 03:28:17;;;;;;;13.90;5.80;;;;;;;11.64;56.58;101927.50;2067816;28;20430;-70
2023/02/18 03:29:21;;;;;;;7.70;5.60;;;;;;;11.09;56.78;101845.41;2070569;28;20518;-70
2023/02/18 03:30:33;;;;;;;11.67;5.93;;;;;;;11.70;56.75;101937.00;2071939;28;20444;-70
2023/02/18 03:31:37;;;;;;;8.50;5.83;;;;;;;11.70;56.84;101942.53;2071547;28;20455;-70
2023/02/18 03:32:38;;;;;;;8.67;5.47;;;;;;;11.46;56.92;101907.38;2071329;28;20522;-70
2023/02/18 03:33:45;;;;;;;8.37;5.37;;;;;;;11.72;56.84;101942.91;2071256;28;20594;-70
2023/02/18 03:34:50;;;;;;;8.57;5.40;;;;;;;11.79;56.53;101936.53;2072288;28;20256;-70
2023/02/18 03:35:53;;;;;;;7.37;5.70;;;;;;;11.46;56.78;101881.59;2070513;28;20455;-70
2023/02/18 03:36:55;;;;;;;7.97;5.53;;;;;;;10.73;56.46;101763.63;2070746;28;20454;-70
2023/02/18 03:38:36;;;;;;;8.83;5.53;;;;;;;11.53;56.19;101876.00;2068783;28;20464;-70
2023/02/18 03:39:40;;;;;;;7.90;5.70;;;;;;;11.37;55.96;101848.75;2070867;28;20459;-70
2023/02/18 03:40:41;;;;;;;8.63;5.43;;;;;;;11.94;55.85;101940.75;2061308;28;20473;-70
2023/02/18 03:41:42;;;;;;;7.93;5.77;;;;;;;11.83;55.54;101931.72;2067660;28;20453;-69
2023/02/18 03:42:43;;;;;;;7.63;5.33;;;;;;;12.00;55.68;101937.09;2067489;28;20247;-70
2023/02/18 03:43:51;;;;;;;6.67;5.40;;;;;;;11.56;55.43;101853.75;2067922;28;20453;-70
2023/02/18 03:44:52;;;;;;;9.50;5.53;;;;;;;12.04;55.55;101932.31;2068465;28;20202;-70
2023/02/18 03:45:53;;;;;;;7.70;5.30;;;;;;;12.11;55.55;101928.69;2069350;28;20459;-70
2023/02/18 03:46:53;;;;;;;6.23;4.83;;;;;;;12.06;55.09;101918.03;2069214;28;20198;-70
2023/02/18 03:47:54;;;;;;;7.33;5.17;;;;;;;12.16;55.12;101925.47;2064492;28;20182;-70
2023/02/18 03:48:54;;;;;;;6.13;4.87;;;;;;;12.20;55.06;101921.44;2072217;28;20598;-70
2023/02/18 03:49:54;;;;;;;9.07;5.40;;;;;;;12.19;55.10;101928.22;2071741;28;20197;-70
2023/02/18 03:50:55;;;;;;;8.53;5.67;;;;;;;12.22;55.22;101924.63;2065979;28;20668;-70
2023/02/18 03:51:55;;;;;;;7.57;5.50;;;;;;;12.24;55.22;101927.00;2068301;28;20193;-70
2023/02/18 03:52:56;;;;;;;6.70;5.30;;;;;;;12.27;55.61;101935.28;2072219;28;20619;-70
2023/02/18 03:53:57;;;;;;;8.97;5.30;;;;;;;11.72;55.66;101839.34;2071133;28;20194;-70
2023/02/18 03:55:15;;;;;;;7.03;4.90;;;;;;;12.26;55.72;101930.13;2070683;28;20201;-70
2023/02/18 03:56:17;;;;;;;7.47;5.17;;;;;;;12.27;56.02;101917.81;2071889;28;20311;-70
2023/02/18 03:57:17;;;;;;;7.93;5.77;;;;;;;11.69;55.93;101832.63;2070453;28;20432;-69
2023/02/18 03:58:17;;;;;;;8.70;5.43;;;;;;;12.31;56.20;101930.50;2071261;28;20447;-70
2023/02/18 03:59:18;;;;;;;7.27;5.50;;;;;;;12.30;56.48;101931.66;2070521;28;20197;-70
2023/02/18 04:00:19;;;;;;;7.17;5.67;;;;;;;12.34;56.28;101946.31;2071747;28;20213;-70
2023/02/18 04:01:19;;;;;;;9.47;5.40;;;;;;;12.40;56.63;101935.56;2065160;28;20209;-70
2023/02/18 04:02:20;;;;;;;8.93;5.17;;;;;;;12.33;56.85;101925.28;2071438;28;20251;-70
2023/02/18 04:03:20;;;;;;;7.53;4.97;;;;;;;12.44;56.36;101927.94;2071857;28;20209;-70
2023/02/18 04:04:20;;;;;;;7.07;5.43;;;;;;;12.39;56.38;101925.63;2071181;28;20230;-70
2023/02/18 04:05:21;;;;;;;7.87;5.57;;;;;;;12.47;56.25;101930.72;2070619;28;20618;-70
2023/02/18 04:06:22;;;;;;;7.63;5.40;;;;;;;12.48;55.96;101931.47;2071280;28;20186;-70
2023/02/18 04:07:23;;;;;;;7.67;5.50;;;;;;;12.53;55.94;101919.91;2070701;28;20189;-70
2023/02/18 04:08:24;;;;;;;8.10;5.90;;;;;;;12.56;55.97;101913.53;2071935;28;20433;-70
2023/02/18 04:09:24;;;;;;;8.43;5.47;;;;;;;12.47;55.65;101894.56;2071970;28;20197;-70
2023/02/18 04:10:24;;;;;;;8.73;5.50;;;;;;;12.61;55.64;101916.63;2069086;28;20671;-70
2023/02/18 04:11:25;;;;;;;7.30;5.43;;;;;;;12.62;55.58;101909.09;2071431;28;20280;-70
2023/02/18 04:12:25;;;;;;;6.73;5.17;;;;;;;12.65;55.82;101899.91;2070962;28;20348;-70
2023/02/18 04:13:26;;;;;;;7.40;5.27;;;;;;;12.64;55.64;101904.69;2072249;28;20740;-70
2023/02/18 04:14:27;;;;;;;7.13;5.40;;;;;;;12.63;55.27;101903.09;2071365;28;20276;-70
2023/02/18 04:15:27;;;;;;;7.83;4.97;;;;;;;12.66;55.23;101902.25;2070631;28;21075;-70
2023/02/18 04:16:28;;;;;;;8.23;5.40;;;;;;;12.44;55.13;101864.00;2071945;28;20197;-70
2023/02/18 04:17:28;;;;;;;7.77;5.23;;;;;;;12.73;54.95;101902.19;2063454;28;20656;-70
2023/02/18 04:18:29;;;;;;;7.67;5.30;;;;;;;11.88;54.85;101770.19;2069318;28;20239;-70
2023/02/18 04:19:29;;;;;;;7.00;5.10;;;;;;;12.73;54.83;101904.16;2071816;28;20240;-70
2023/02/18 04:20:30;;;;;;;9.20;5.27;;;;;;;12.73;54.97;101906.94;2071901;28;20225;-70
2023/02/18 04:21:31;;;;;;;7.93;5.17;;;;;;;12.72;55.07;101900.63;2070670;28;20193;-70
2023/02/18 04:22:32;;;;;;;8.73;5.10;;;;;;;12.64;55.24;101892.75;2071298;28;20526;-70
2023/02/18 04:23:32;;;;;;;7.13;5.20;;;;;;;12.78;55.20;101909.28;2072477;28;20474;-70
2023/02/18 04:24:33;;;;;;;7.37;5.13;;;;;;;12.39;55.00;101854.13;2071958;28;20203;-69
2023/02/18 04:25:33;;;;;;;8.27;5.57;;;;;;;12.59;54.75;101874.53;2063771;28;20206;-70
2023/02/18 04:26:34;;;;;;;6.33;4.83;;;;;;;12.74;54.89;101906.53;2070917;28;20281;-70
2023/02/18 04:27:34;;;;;;;5.97;4.70;;;;;;;12.84;54.59;101904.81;2070939;28;20209;-70
2023/02/18 04:28:35;;;;;;;8.37;5.20;;;;;;;12.21;53.77;101823.00;2071636;28;20303;-70
2023/02/18 04:29:35;;;;;;;8.83;5.03;;;;;;;12.74;53.71;101905.75;2071892;28;20213;-70
2023/02/18 04:30:35;;;;;;;7.87;5.03;;;;;;;12.71;53.68;101901.03;2070043;28;20185;-70
2023/02/18 04:31:36;;;;;;;7.87;5.10;;;;;;;12.79;53.29;101903.31;2063585;28;20183;-70
2023/02/18 04:32:36;;;;;;;8.80;5.17;;;;;;;12.81;53.04;101898.09;2071502;28;20229;-70
2023/02/18 04:33:37;;;;;;;15.73;5.70;;;;;;;12.91;52.72;101902.75;2065435;28;20734;-70
2023/02/18 04:34:37;;;;;;;8.80;4.77;;;;;;;12.83;52.67;101903.25;2069050;28;20193;-70
2023/02/18 04:35:40;;;;;;;10.20;5.00;;;;;;;12.82;52.48;101896.13;2066492;28;20715;-70
2023/02/18 04:36:40;;;;;;;10.40;5.00;;;;;;;12.75;52.69;101905.34;2066245;28;20196;-70
2023/02/18 04:37:41;;;;;;;10.27;4.77;;;;;;;12.73;53.02;101904.97;2069688;28;20425;-70
2023/02/18 04:38:42;;;;;;;6.47;4.60;;;;;;;12.78;53.15;101895.38;2070316;28;20190;-70
2023/02/18 04:39:42;;;;;;;8.63;5.00;;;;;;;12.83;52.81;101894.91;2071108;28;20221;-70
2023/02/18 04:40:42;;;;;;;10.33;5.03;;;;;;;12.19;52.85;101792.03;2071944;28;20687;-70
2023/02/18 04:41:43;;;;;;;7.10;4.90;;;;;;;12.84;53.15;101888.94;2071135;28;20304;-69
2023/02/18 04:42:43;;;;;;;7.67;4.77;;;;;;;12.82;52.77;101885.75;2071858;28;20192;-70
2023/02/18 04:43:44;;;;;;;7.70;4.87;;;;;;;12.19;51.95;101767.00;2071420;28;20227;-70
2023/02/18 04:44:44;;;;;;;7.43;5.00;;;;;;;12.92;52.10;101884.06;2071856;28;20198;-70
2023/02/18 04:45:44;;;;;;;8.30;4.77;;;;;;;12.76;52.44;101862.41;2070610;28;20177;-70
2023/02/18 04:46:45;;;;;;;6.10;4.80;;;;;;;12.82;52.34;101874.63;2070441;28;20285;-70
2023/02/18 04:47:45;;;;;;;7.20;5.00;;;;;;;12.78;52.34;101859.22;2071416;28;20194;-70
2023/02/18 04:48:46;;;;;;;8.00;4.67;;;;;;;12.36;52.40;101793.81;2069856;28;20193;-70
2023/02/18 04:49:46;;;;;;;8.27;4.73;;;;;;;12.93;52.28;101869.75;2070878;28;20572;-70
2023/02/18 04:50:47;;;;;;;7.30;4.60;;;;;;;12.73;51.97;101848.53;2068588;28;20193;-70
2023/02/18 04:51:47;;;;;;;9.90;4.53;;;;;;;13.00;51.71;101878.00;2070480;28;20718;-70
2023/02/18 04:52:48;;;;;;;6.50;4.33;;;;;;;13.03;51.45;101874.41;2071253;28;20228;-70
2023/02/18 04:53:48;;;;;;;8.00;4.87;;;;;;;13.06;51.40;101870.75;2071663;28;20579;-70
2023/02/18 04:54:48;;;;;;;7.87;4.53;;;;;;;13.06;51.81;101867.97;2071456;28;20673;-70
2023/02/18 04:55:50;;;;;;;6.27;4.57;;;;;;;13.03;51.83;101868.84;2070630;28;20191;-70
2023/02/18 04:56:50;;;;;;;7.60;4.87;;;;;;;12.61;52.17;101808.16;2066546;28;20204;-70
2023/02/18 04:57:51;;;;;;;7.47;5.07;;;;;;;12.95;52.33;101870.09;2070749;28;20480;-70
2023/02/18 04:58:51;;;;;;;7.57;4.70;;;;;;;12.99;52.61;101879.22;2071422;28;20262;-70
2023/02/18 04:59:52;;;;;;;7.40;4.80;;;;;;;12.97;52.53;101878.06;2071109;28;20336;-70
2023/02/18 05:00:52;;;;;;;6.60;5.10;;;;;;;12.94;52.81;101874.09;2071609;28;20197;-69
2023/02/18 05:01:53;;;;;;;7.87;4.80;;;;;;;12.89;52.77;101880.13;2070729;28;20213;-70